createdAt,value
2022-10-11T00:01:48.058Z,11.61
2022-10-11T00:04:16.169Z,11.61
2022-10-11T00:06:44.696Z,11.61
2022-10-11T00:09:16.333Z,11.60
2022-10-11T00:11:44.091Z,11.60
2022-10-11T00:14:11.802Z,11.59
2022-10-11T00:16:41.831Z,11.54
2022-10-11T00:19:09.472Z,11.50
2022-10-11T00:21:37.485Z,11.52
2022-10-11T00:24:05.623Z,11.55
2022-10-11T00:26:33.437Z,11.52
2022-10-11T00:29:01.136Z,11.52
2022-10-11T00:31:32.092Z,11.54
2022-10-11T00:34:03.197Z,11.55
2022-10-11T00:36:30.873Z,11.58
2022-10-11T00:38:59.333Z,11.61
2022-10-11T00:41:26.942Z,11.59
2022-10-11T00:44:19.177Z,11.59
2022-10-11T00:47:02.354Z,11.53
2022-10-11T00:49:55.632Z,11.51
2022-10-11T00:52:32.000Z,11.47
2022-10-11T00:55:04.915Z,11.50
2022-10-11T00:57:40.077Z,11.52
2022-10-11T01:00:10.899Z,11.49
2022-10-11T01:02:39.639Z,11.50
2022-10-11T01:05:29.248Z,11.54
2022-10-11T01:08:00.992Z,11.57
2022-10-11T01:10:29.741Z,11.54
2022-10-11T01:13:17.507Z,11.58
2022-10-11T01:15:57.754Z,11.55
2022-10-11T01:18:40.905Z,11.53
2022-10-11T01:21:34.323Z,11.46
2022-10-11T01:24:49.251Z,11.41
2022-10-11T01:27:44.149Z,11.38
2022-10-11T01:30:25.368Z,11.40
2022-10-11T01:33:35.727Z,11.33
2022-10-11T01:36:40.034Z,11.39
2022-10-11T01:39:16.785Z,11.45
2022-10-11T01:41:49.374Z,11.42
2022-10-11T01:44:18.025Z,11.41
2022-10-11T01:46:45.834Z,11.42
2022-10-11T01:49:13.616Z,11.46
2022-10-11T01:51:48.656Z,11.50
2022-10-11T01:55:03.903Z,11.51
2022-10-11T01:57:41.198Z,11.41
2022-10-11T02:00:22.056Z,11.38
2022-10-11T02:03:05.420Z,11.35
2022-10-11T02:05:40.603Z,11.37
2022-10-11T02:08:30.202Z,11.44
2022-10-11T02:11:06.738Z,11.44
2022-10-11T02:13:49.065Z,11.52
2022-10-11T02:16:21.576Z,11.55
2022-10-11T02:18:53.993Z,11.56
2022-10-11T02:21:24.237Z,11.56
2022-10-11T02:24:01.408Z,11.65
2022-10-11T02:26:31.680Z,11.67
2022-10-11T02:29:04.194Z,11.68
2022-10-11T02:31:36.094Z,11.74
2022-10-11T02:34:11.898Z,11.74
2022-10-11T02:36:43.865Z,11.81
2022-10-11T02:39:18.084Z,11.85
2022-10-11T02:41:46.835Z,11.85
2022-10-11T02:44:24.063Z,11.84
2022-10-11T02:46:52.183Z,11.83
2022-10-11T02:49:21.327Z,11.87
2022-10-11T02:51:49.082Z,11.93
2022-10-11T02:54:17.390Z,11.97
2022-10-11T02:56:45.090Z,11.96
2022-10-11T02:59:12.877Z,11.96
2022-10-11T03:01:40.713Z,11.98
2022-10-11T03:04:08.541Z,12.02
2022-10-11T03:06:36.240Z,12.05
2022-10-11T03:09:04.527Z,12.11
2022-10-11T03:11:32.326Z,12.13
2022-10-11T03:13:59.972Z,12.18
2022-10-11T03:16:27.667Z,12.22
2022-10-11T03:18:55.325Z,12.21
2022-10-11T03:21:25.243Z,12.17
2022-10-11T03:23:52.892Z,12.17
2022-10-11T03:26:20.710Z,12.21
2022-10-11T03:28:48.364Z,12.21
2022-10-11T03:31:16.303Z,12.21
2022-10-11T03:33:43.894Z,12.25
2022-10-11T03:36:11.647Z,12.27
2022-10-11T03:38:39.466Z,12.33
2022-10-11T03:41:07.395Z,12.40
2022-10-11T03:43:35.039Z,12.45
2022-10-11T03:46:03.312Z,12.43
2022-10-11T03:48:31.206Z,12.44
2022-10-11T03:50:59.032Z,12.49
2022-10-11T03:53:26.759Z,12.50
2022-10-11T03:55:55.831Z,12.54
2022-10-11T03:58:24.601Z,12.62
2022-10-11T04:00:53.979Z,12.67
2022-10-11T04:03:21.624Z,12.70
2022-10-11T04:05:49.626Z,12.78
2022-10-11T04:08:17.775Z,12.82
2022-10-11T04:10:45.651Z,12.83
2022-10-11T04:13:13.327Z,12.82
2022-10-11T04:15:41.671Z,12.82
2022-10-11T04:18:10.169Z,12.83
2022-10-11T04:20:37.912Z,12.86
2022-10-11T04:23:05.619Z,12.91
2022-10-11T04:25:33.436Z,12.91
2022-10-11T04:28:01.094Z,12.88
2022-10-11T04:30:28.775Z,12.89
2022-10-11T04:32:57.043Z,12.85
2022-10-11T04:35:24.736Z,12.85
2022-10-11T04:37:52.505Z,12.89
2022-10-11T04:40:20.370Z,12.93
2022-10-11T04:42:48.047Z,12.96
2022-10-11T04:45:15.758Z,12.97
2022-10-11T04:47:43.450Z,12.99
2022-10-11T04:50:11.261Z,13.00
2022-10-11T04:52:38.955Z,12.98
2022-10-11T04:55:07.183Z,12.99
2022-10-11T04:57:34.872Z,12.94
2022-10-11T05:00:04.722Z,12.93
2022-10-11T05:02:32.672Z,12.89
2022-10-11T05:05:00.416Z,12.86
2022-10-11T05:07:28.127Z,12.85
2022-10-11T05:09:55.858Z,12.86
2022-10-11T05:12:23.658Z,12.87
2022-10-11T05:14:52.121Z,12.87
2022-10-11T05:17:19.885Z,12.86
2022-10-11T05:19:47.670Z,12.85
2022-10-11T05:22:15.412Z,12.85
2022-10-11T05:24:43.628Z,12.88
2022-10-11T05:27:12.699Z,12.92
2022-10-11T05:29:40.301Z,12.92
2022-10-11T05:32:08.148Z,12.95
2022-10-11T05:34:35.774Z,13.00
2022-10-11T05:37:03.639Z,13.01
2022-10-11T05:39:31.378Z,13.04
2022-10-11T05:41:59.198Z,13.05
2022-10-11T05:44:27.041Z,13.10
2022-10-11T05:46:54.830Z,13.15
2022-10-11T05:49:22.814Z,13.17
2022-10-11T05:51:50.586Z,13.14
2022-10-11T05:54:18.350Z,13.17
2022-10-11T05:56:46.450Z,13.23
2022-10-11T05:59:14.433Z,13.30
2022-10-11T06:01:42.372Z,13.31
2022-10-11T06:04:11.929Z,13.43
2022-10-11T06:06:39.687Z,13.52
2022-10-11T06:09:07.508Z,13.62
2022-10-11T06:11:35.416Z,13.72
2022-10-11T06:14:03.138Z,13.85
2022-10-11T06:16:31.276Z,13.98
2022-10-11T06:18:59.214Z,14.10
2022-10-11T06:21:27.039Z,14.20
2022-10-11T06:24:00.784Z,14.37
2022-10-11T06:26:29.640Z,14.48
2022-10-11T06:28:57.462Z,14.56
2022-10-11T06:31:25.255Z,14.70
2022-10-11T06:33:52.893Z,14.68
2022-10-11T06:36:20.724Z,14.78
2022-10-11T06:38:52.315Z,14.95
2022-10-11T06:41:21.742Z,15.07
2022-10-11T06:43:52.514Z,15.15
2022-10-11T06:46:22.089Z,15.28
2022-10-11T06:48:50.726Z,15.44
2022-10-11T06:51:21.353Z,15.55
2022-10-11T06:53:51.425Z,15.73
2022-10-11T06:56:20.121Z,15.92
2022-10-11T06:58:48.043Z,16.01
2022-10-11T07:01:18.795Z,16.05
2022-10-11T07:03:47.079Z,16.08
2022-10-11T07:06:17.777Z,16.14
2022-10-11T07:08:45.769Z,15.90
2022-10-11T07:11:19.038Z,15.72
2022-10-11T07:13:59.043Z,15.24
2022-10-11T07:16:28.082Z,14.94
2022-10-11T07:19:01.220Z,15.01
2022-10-11T07:21:30.685Z,15.18
2022-10-11T07:23:58.669Z,15.50
2022-10-11T07:26:27.009Z,15.66
2022-10-11T07:28:54.731Z,15.72
2022-10-11T07:31:24.617Z,15.78
2022-10-11T07:33:52.688Z,15.74
2022-10-11T07:36:20.928Z,15.65
2022-10-11T07:38:50.243Z,15.57
2022-10-11T07:41:18.789Z,15.54
2022-10-11T07:43:48.149Z,15.53
2022-10-11T07:46:16.935Z,15.73
2022-10-11T07:48:44.587Z,15.74
2022-10-11T07:51:15.406Z,15.84
2022-10-11T07:53:48.366Z,16.05
2022-10-11T07:56:19.431Z,16.22
2022-10-11T07:59:05.066Z,16.22
2022-10-11T08:01:33.373Z,16.22
2022-10-11T08:04:01.263Z,16.23
2022-10-11T08:06:32.641Z,16.41
2022-10-11T08:09:01.991Z,16.57
2022-10-11T08:11:36.010Z,16.69
2022-10-11T08:14:08.856Z,16.81
2022-10-11T08:16:38.345Z,16.88
2022-10-11T08:19:06.475Z,17.01
2022-10-11T08:21:34.975Z,17.01
2022-10-11T08:24:04.557Z,16.78
2022-10-11T08:26:33.686Z,16.69
2022-10-11T08:29:05.416Z,16.78
2022-10-11T08:31:34.571Z,16.55
2022-10-11T08:34:02.901Z,16.44
2022-10-11T08:36:30.694Z,16.65
2022-10-11T08:38:58.747Z,16.71
2022-10-11T08:41:38.809Z,16.57
2022-10-11T08:44:12.602Z,16.67
2022-10-11T08:46:45.528Z,16.76
2022-10-11T08:49:15.802Z,16.85
2022-10-11T08:52:52.203Z,16.96
2022-10-11T08:55:38.383Z,16.95
2022-10-11T08:58:06.419Z,17.09
2022-10-11T09:00:38.388Z,17.16
2022-10-11T09:03:17.077Z,17.21
2022-10-11T09:06:08.280Z,17.33
2022-10-11T09:08:48.034Z,17.30
2022-10-11T09:11:21.776Z,17.31
2022-10-11T09:14:07.583Z,17.36
2022-10-11T09:17:06.023Z,17.40
2022-10-11T09:20:04.036Z,17.17
2022-10-11T09:22:59.960Z,17.19
2022-10-11T09:25:35.545Z,17.04
2022-10-11T09:28:33.497Z,17.23
2022-10-11T09:31:01.378Z,17.39
2022-10-11T09:33:41.557Z,17.48
2022-10-11T09:36:42.895Z,17.60
2022-10-11T09:39:25.193Z,17.52
2022-10-11T09:42:00.765Z,17.59
2022-10-11T09:44:32.486Z,17.66
2022-10-11T09:47:00.304Z,17.56
2022-10-11T09:49:40.020Z,17.57
2022-10-11T09:52:16.125Z,17.63
2022-10-11T09:54:46.839Z,17.58
2022-10-11T09:57:33.278Z,17.65
2022-10-11T10:00:08.718Z,17.76
2022-10-11T10:02:50.719Z,17.92
2022-10-11T10:05:23.858Z,18.02
2022-10-11T10:08:10.026Z,18.21
2022-10-11T10:10:41.057Z,18.43
2022-10-11T10:13:23.805Z,18.58
2022-10-11T10:15:55.552Z,18.82
2022-10-11T10:18:49.021Z,18.95
2022-10-11T10:21:23.663Z,18.97
2022-10-11T10:23:55.568Z,18.94
2022-10-11T10:26:25.746Z,18.73
2022-10-11T10:29:08.819Z,18.48
2022-10-11T10:32:09.288Z,18.40
2022-10-11T10:34:35.527Z,18.56
2022-10-11T10:37:21.184Z,18.86
2022-10-11T10:39:59.662Z,18.95
2022-10-11T10:42:27.997Z,19.02
2022-10-11T10:44:58.714Z,19.17
2022-10-11T10:47:37.364Z,19.25
2022-10-11T10:50:27.594Z,19.43
2022-10-11T10:53:20.729Z,19.49
2022-10-11T10:55:59.292Z,19.31
2022-10-11T10:58:43.233Z,19.04
2022-10-11T11:01:20.720Z,18.81
2022-10-11T11:04:05.674Z,18.57
2022-10-11T11:06:35.758Z,18.39
2022-10-11T11:09:12.151Z,18.15
2022-10-11T11:11:52.000Z,18.11
2022-10-11T11:14:22.672Z,18.09
2022-10-11T11:17:06.084Z,18.11
2022-10-11T11:19:39.856Z,18.06
2022-10-11T11:22:48.263Z,18.09
2022-10-11T11:25:28.161Z,17.77
2022-10-11T11:28:07.299Z,17.82
2022-10-11T11:30:59.888Z,18.05
2022-10-11T11:33:49.906Z,18.29
2022-10-11T11:36:36.930Z,18.27
2022-10-11T11:39:11.632Z,18.34
2022-10-11T11:41:51.673Z,18.71
2022-10-11T11:44:31.541Z,18.79
2022-10-11T11:47:26.930Z,18.88
2022-10-11T11:49:59.689Z,18.69
2022-10-11T11:52:33.861Z,18.49
2022-10-11T11:55:18.680Z,18.36
2022-10-11T11:58:03.298Z,18.12
2022-10-11T12:01:00.381Z,18.04
2022-10-11T12:03:34.454Z,18.03
2022-10-11T12:06:14.096Z,17.92
2022-10-11T12:08:44.980Z,18.00
2022-10-11T12:11:22.548Z,18.05
2022-10-11T12:13:52.260Z,18.03
2022-10-11T12:16:21.482Z,18.08
2022-10-11T12:18:57.960Z,18.13
2022-10-11T12:21:34.794Z,18.11
2022-10-11T12:24:15.487Z,18.00
2022-10-11T12:26:47.410Z,18.01
2022-10-11T12:29:25.952Z,18.07
2022-10-11T12:31:58.614Z,18.14
2022-10-11T12:34:38.562Z,18.24
2022-10-11T12:37:22.271Z,18.29
2022-10-11T12:39:55.473Z,18.17
2022-10-11T12:42:38.103Z,18.12
2022-10-11T12:45:30.432Z,18.14
2022-10-11T12:48:36.041Z,18.16
2022-10-11T12:51:20.325Z,18.13
2022-10-11T12:54:27.548Z,18.16
2022-10-11T12:57:23.444Z,18.17
2022-10-11T12:59:51.302Z,18.18
2022-10-11T13:02:42.668Z,18.16
2022-10-11T13:05:48.675Z,18.21
2022-10-11T13:08:40.043Z,18.31
2022-10-11T13:11:23.953Z,18.40
2022-10-11T13:14:08.150Z,18.30
2022-10-11T13:17:04.103Z,17.95
2022-10-11T13:19:34.021Z,17.87
2022-10-11T13:22:29.177Z,17.87
2022-10-11T13:24:58.158Z,17.90
2022-10-11T13:27:27.640Z,17.91
2022-10-11T13:30:00.233Z,18.07
2022-10-11T13:32:31.995Z,18.28
2022-10-11T13:35:14.938Z,18.46
2022-10-11T13:38:08.710Z,18.65
2022-10-11T13:41:03.309Z,18.68
2022-10-11T13:43:31.875Z,18.70
2022-10-11T13:46:01.841Z,18.68
2022-10-11T13:48:32.155Z,18.38
2022-10-11T13:51:09.618Z,18.37
2022-10-11T13:53:37.453Z,18.14
2022-10-11T13:56:09.494Z,17.91
2022-10-11T13:58:45.080Z,17.92
2022-10-11T14:01:40.148Z,17.95
2022-10-11T14:04:10.991Z,17.99
2022-10-11T14:07:02.923Z,18.02
2022-10-11T14:09:47.111Z,18.18
2022-10-11T14:12:31.423Z,18.32
2022-10-11T14:15:01.022Z,18.36
2022-10-11T14:17:41.042Z,18.45
2022-10-11T14:20:12.046Z,18.47
2022-10-11T14:22:39.916Z,18.35
2022-10-11T14:25:07.886Z,18.29
2022-10-11T14:27:36.934Z,18.33
2022-10-11T14:30:27.248Z,18.20
2022-10-11T14:32:59.592Z,18.17
2022-10-11T14:35:32.896Z,18.13
2022-10-11T14:38:00.733Z,17.93
2022-10-11T14:40:31.078Z,17.76
2022-10-11T14:42:59.047Z,17.52
2022-10-11T14:45:27.212Z,17.51
2022-10-11T14:47:56.232Z,17.68
2022-10-11T14:50:47.190Z,17.74
2022-10-11T14:53:15.263Z,17.73
2022-10-11T14:55:43.348Z,17.71
2022-10-11T14:58:14.051Z,17.68
2022-10-11T15:00:42.264Z,17.65
2022-10-11T15:03:10.141Z,17.41
2022-10-11T15:05:38.242Z,17.36
2022-10-11T15:08:07.624Z,17.30
2022-10-11T15:10:38.661Z,17.13
2022-10-11T15:13:10.014Z,17.14
2022-10-11T15:15:41.126Z,17.01
2022-10-11T15:18:12.912Z,16.85
2022-10-11T15:20:43.424Z,16.74
2022-10-11T15:23:11.692Z,16.68
2022-10-11T15:25:41.124Z,16.68
2022-10-11T15:28:27.607Z,16.67
2022-10-11T15:30:55.826Z,16.63
2022-10-11T15:33:24.206Z,16.58
2022-10-11T15:35:52.659Z,16.54
2022-10-11T15:38:22.693Z,16.51
2022-10-11T15:40:51.192Z,16.44
2022-10-11T15:43:24.534Z,16.35
2022-10-11T15:45:52.812Z,16.28
2022-10-11T15:48:22.895Z,16.23
2022-10-11T15:50:51.063Z,16.08
2022-10-11T15:53:22.384Z,15.98
2022-10-11T15:55:52.760Z,15.90
2022-10-11T15:58:32.468Z,15.76
2022-10-11T16:01:05.746Z,15.59
2022-10-11T16:03:35.506Z,15.48
2022-10-11T16:06:05.683Z,15.46
2022-10-11T16:08:34.648Z,15.48
2022-10-11T16:11:03.720Z,15.50
2022-10-11T16:13:31.885Z,15.53
2022-10-11T16:16:02.383Z,15.53
2022-10-11T16:18:34.841Z,15.51
2022-10-11T16:21:09.787Z,15.48
2022-10-11T16:23:38.484Z,15.45
2022-10-11T16:26:09.271Z,15.43
2022-10-11T16:28:38.059Z,15.37
2022-10-11T16:31:10.951Z,15.30
2022-10-11T16:33:46.073Z,15.23
2022-10-11T16:36:33.053Z,15.25
2022-10-11T16:39:02.593Z,15.22
2022-10-11T16:41:30.294Z,15.18
2022-10-11T16:43:58.108Z,15.13
2022-10-11T16:46:25.960Z,15.06
2022-10-11T16:48:56.171Z,15.04
2022-10-11T16:51:25.851Z,14.96
2022-10-11T16:53:58.794Z,14.95
2022-10-11T16:56:29.141Z,14.91
2022-10-11T16:58:56.809Z,14.90
2022-10-11T17:01:25.656Z,14.83
2022-10-11T17:03:55.984Z,14.80
2022-10-11T17:06:35.831Z,14.79
2022-10-11T17:09:09.555Z,14.79
2022-10-11T17:11:39.964Z,14.76
2022-10-11T17:14:10.492Z,14.72
2022-10-11T17:16:47.716Z,14.65
2022-10-11T17:19:22.452Z,14.61
2022-10-11T17:21:51.470Z,14.60
2022-10-11T17:24:19.887Z,14.60
2022-10-11T17:26:51.042Z,14.54
2022-10-11T17:29:23.698Z,14.43
2022-10-11T17:31:53.605Z,14.44
2022-10-11T17:34:21.452Z,14.46
2022-10-11T17:36:49.193Z,14.47
2022-10-11T17:39:20.540Z,14.48
2022-10-11T17:41:48.948Z,14.46
2022-10-11T17:44:22.227Z,14.46
2022-10-11T17:46:50.376Z,14.45
2022-10-11T17:49:18.153Z,14.44
2022-10-11T17:51:46.127Z,14.41
2022-10-11T17:54:15.912Z,14.41
2022-10-11T17:56:46.582Z,14.33
2022-10-11T17:59:21.514Z,14.28
2022-10-11T18:01:50.728Z,14.22
2022-10-11T18:04:20.225Z,14.23
2022-10-11T18:06:49.909Z,14.21
2022-10-11T18:09:18.773Z,14.20
2022-10-11T18:11:47.871Z,14.15
2022-10-11T18:14:17.375Z,14.15
2022-10-11T18:16:46.553Z,14.12
2022-10-11T18:19:15.662Z,14.08
2022-10-11T18:21:43.532Z,14.02
2022-10-11T18:24:16.625Z,14.01
2022-10-11T18:26:45.817Z,13.97
2022-10-11T18:29:14.234Z,13.92
2022-10-11T18:31:42.192Z,13.93
2022-10-11T18:34:13.142Z,13.91
2022-10-11T18:36:40.872Z,13.82
2022-10-11T18:39:12.213Z,13.83
2022-10-11T18:41:44.666Z,13.85
2022-10-11T18:44:15.227Z,13.84
2022-10-11T18:46:44.269Z,13.74
2022-10-11T18:49:13.724Z,13.71
2022-10-11T18:51:42.386Z,13.73
2022-10-11T18:54:13.975Z,13.73
2022-10-11T18:56:45.998Z,13.70
2022-10-11T18:59:13.670Z,13.69
2022-10-11T19:01:44.673Z,13.70
2022-10-11T19:04:13.601Z,13.65
2022-10-11T19:06:44.035Z,13.64
2022-10-11T19:09:17.928Z,13.65
2022-10-11T19:11:45.631Z,13.60
2022-10-11T19:14:15.370Z,13.61
2022-10-11T19:16:51.252Z,13.63
2022-10-11T19:19:25.640Z,13.57
2022-10-11T19:21:54.093Z,13.50
2022-10-11T19:24:24.311Z,13.49
2022-10-11T19:27:01.257Z,13.47
2022-10-11T19:29:31.020Z,13.45
2022-10-11T19:32:03.162Z,13.45
2022-10-11T19:34:35.370Z,13.42
2022-10-11T19:37:06.154Z,13.36
2022-10-11T19:39:33.774Z,13.32
2022-10-11T19:42:04.990Z,13.32
2022-10-11T19:44:37.263Z,13.28
2022-10-11T19:47:08.304Z,13.26
2022-10-11T19:49:36.030Z,13.22
2022-10-11T19:52:03.848Z,13.23
2022-10-11T19:54:32.212Z,13.19
2022-10-11T19:57:01.254Z,13.19
2022-10-11T19:59:29.020Z,13.16
2022-10-11T20:01:56.716Z,13.12
2022-10-11T20:07:11.935Z,13.05
2022-10-11T20:09:39.571Z,13.02
2022-10-11T20:12:07.455Z,12.98
2022-10-11T20:14:35.290Z,12.90
2022-10-11T20:17:03.174Z,12.90
2022-10-11T20:19:31.886Z,12.88
2022-10-11T20:22:01.619Z,12.88
2022-10-11T20:24:37.053Z,12.88
2022-10-11T20:27:16.615Z,12.92
2022-10-11T20:29:53.287Z,12.89
2022-10-11T20:32:25.161Z,12.90
2022-10-11T20:34:55.450Z,12.89
2022-10-11T20:37:40.805Z,12.91
2022-10-11T20:40:13.573Z,12.88
2022-10-11T20:42:43.884Z,12.89
2022-10-11T20:45:12.371Z,12.85
2022-10-11T20:47:40.469Z,12.84
2022-10-11T20:50:08.494Z,12.84
2022-10-11T20:53:01.762Z,12.80
2022-10-11T20:55:29.437Z,12.74
2022-10-11T20:57:58.254Z,12.72
2022-10-11T21:00:26.101Z,12.71
2022-10-11T21:02:59.339Z,12.74
2022-10-11T21:05:28.243Z,12.66
2022-10-11T21:07:56.022Z,12.63
2022-10-11T21:10:23.782Z,12.62
2022-10-11T21:12:51.512Z,12.62
2022-10-11T21:15:19.780Z,12.53
2022-10-11T21:17:47.859Z,12.55
2022-10-11T21:20:15.893Z,12.57
2022-10-11T21:22:43.651Z,12.56
2022-10-11T21:25:11.806Z,12.55
2022-10-11T21:27:39.755Z,12.55
2022-10-11T21:30:08.365Z,12.53
2022-10-11T21:32:38.100Z,12.52
2022-10-11T21:35:06.298Z,12.44
2022-10-11T21:37:34.230Z,12.43
2022-10-11T21:40:05.473Z,12.45
2022-10-11T21:42:33.223Z,12.42
2022-10-11T21:45:01.082Z,12.37
2022-10-11T21:47:31.326Z,12.39
2022-10-11T21:50:00.525Z,12.42
2022-10-11T21:52:29.214Z,12.41
2022-10-11T21:54:57.036Z,12.40
2022-10-11T21:57:24.772Z,12.38
2022-10-11T21:59:52.905Z,12.36
2022-10-11T22:02:20.558Z,12.28
2022-10-11T22:04:48.214Z,12.26
2022-10-11T22:07:15.871Z,12.26
2022-10-11T22:09:43.494Z,12.22
2022-10-11T22:12:11.332Z,12.20
2022-10-11T22:14:38.893Z,12.20
2022-10-11T22:17:06.699Z,12.19
2022-10-11T22:19:34.456Z,12.17
2022-10-11T22:22:02.293Z,12.15
2022-10-11T22:24:30.126Z,12.15
2022-10-11T22:26:58.061Z,12.17
2022-10-11T22:29:28.533Z,12.17
2022-10-11T22:31:59.665Z,12.17
2022-10-11T22:34:31.338Z,12.17
2022-10-11T22:36:59.218Z,12.14
2022-10-11T22:39:27.025Z,12.12
2022-10-11T22:41:54.889Z,12.12
2022-10-11T22:44:22.577Z,12.11
2022-10-11T22:46:50.364Z,12.10
2022-10-11T22:49:18.064Z,12.08
2022-10-11T22:51:45.831Z,12.07
2022-10-11T22:54:13.808Z,12.02
2022-10-11T22:56:41.617Z,12.00
2022-10-11T22:59:09.759Z,11.99
2022-10-11T23:01:37.521Z,11.97
2022-10-11T23:04:05.973Z,11.98
2022-10-11T23:06:33.902Z,11.98
2022-10-11T23:09:02.630Z,11.97
2022-10-11T23:11:30.867Z,11.95
2022-10-11T23:13:58.516Z,11.92
2022-10-11T23:16:26.416Z,11.89
2022-10-11T23:18:55.337Z,11.90
2022-10-11T23:21:23.058Z,11.91
2022-10-11T23:23:54.072Z,11.88
2022-10-11T23:26:22.148Z,11.84
2022-10-11T23:28:54.350Z,11.80
2022-10-11T23:31:22.674Z,11.75
2022-10-11T23:33:50.454Z,11.71
2022-10-11T23:36:24.753Z,11.62
2022-10-11T23:38:57.249Z,11.57
2022-10-11T23:41:28.383Z,11.55
2022-10-11T23:43:57.117Z,11.51
2022-10-11T23:46:25.044Z,11.49
2022-10-11T23:48:52.896Z,11.49
2022-10-11T23:51:20.647Z,11.51
2022-10-11T23:53:48.315Z,11.46
2022-10-11T23:56:16.012Z,11.49
2022-10-11T23:58:43.802Z,11.48
